createdAt,value
2022-09-26T00:01:17.116Z,83.69
2022-09-26T00:03:45.374Z,83.86
2022-09-26T00:06:13.047Z,84.23
2022-09-26T00:08:40.883Z,83.46
2022-09-26T00:11:12.618Z,83.20
2022-09-26T00:13:41.974Z,86.19
2022-09-26T00:16:13.302Z,86.41
2022-09-26T00:18:41.760Z,86.41
2022-09-26T00:21:10.498Z,85.76
2022-09-26T00:23:38.644Z,84.42
2022-09-26T00:26:07.605Z,86.09
2022-09-26T00:28:36.560Z,86.72
2022-09-26T00:31:05.100Z,86.59
2022-09-26T00:33:37.517Z,83.38
2022-09-26T00:36:05.477Z,83.62
2022-09-26T00:38:33.420Z,83.87
2022-09-26T00:41:01.170Z,84.13
2022-09-26T00:43:32.566Z,84.39
2022-09-26T00:46:00.945Z,84.18
2022-09-26T00:48:28.747Z,85.30
2022-09-26T00:50:58.465Z,84.73
2022-09-26T00:53:28.177Z,83.59
2022-09-26T00:55:59.789Z,84.21
2022-09-26T00:58:28.358Z,85.61
2022-09-26T01:00:56.060Z,87.23
2022-09-26T01:03:24.237Z,84.64
2022-09-26T01:05:52.016Z,86.72
2022-09-26T01:08:25.431Z,84.67
2022-09-26T01:10:53.522Z,84.31
2022-09-26T01:13:22.038Z,85.56
2022-09-26T01:15:51.383Z,84.52
2022-09-26T01:18:22.249Z,84.93
2022-09-26T01:20:55.567Z,84.91
2022-09-26T01:23:32.786Z,84.06
2022-09-26T01:26:06.406Z,84.82
2022-09-26T01:28:37.703Z,83.04
2022-09-26T01:31:08.906Z,83.65
2022-09-26T01:33:42.958Z,83.47
2022-09-26T01:36:34.832Z,83.41
2022-09-26T01:39:05.001Z,84.31
2022-09-26T01:41:37.691Z,83.86
2022-09-26T01:44:08.273Z,83.37
2022-09-26T01:46:38.939Z,83.46
2022-09-26T01:49:08.731Z,83.85
2022-09-26T01:51:37.465Z,84.24
2022-09-26T01:54:06.285Z,84.24
2022-09-26T01:56:36.725Z,83.70
2022-09-26T01:59:05.035Z,83.75
2022-09-26T02:01:34.248Z,83.50
2022-09-26T02:04:07.903Z,83.36
2022-09-26T02:06:37.276Z,81.82
2022-09-26T02:09:06.161Z,81.17
2022-09-26T02:11:35.494Z,81.60
2022-09-26T02:14:04.304Z,81.98
2022-09-26T02:16:32.917Z,81.95
2022-09-26T02:19:01.106Z,81.85
2022-09-26T02:21:31.491Z,81.95
2022-09-26T02:23:59.314Z,82.42
2022-09-26T02:26:26.891Z,83.38
2022-09-26T02:28:54.692Z,83.63
2022-09-26T02:31:25.887Z,82.54
2022-09-26T02:33:53.729Z,82.70
2022-09-26T02:39:16.938Z,81.73
2022-09-26T02:41:47.669Z,82.21
2022-09-26T02:44:30.116Z,83.04
2022-09-26T02:47:05.881Z,82.72
2022-09-26T02:49:38.809Z,84.77
2022-09-26T02:52:12.252Z,84.81
2022-09-26T02:54:44.084Z,84.67
2022-09-26T02:57:16.643Z,84.54
2022-09-26T02:59:47.275Z,83.75
2022-09-26T03:02:15.873Z,83.49
2022-09-26T03:04:48.721Z,84.92
2022-09-26T03:07:17.884Z,85.09
2022-09-26T03:09:48.385Z,84.46
2022-09-26T03:12:16.753Z,84.10
2022-09-26T03:14:47.070Z,82.32
2022-09-26T03:17:18.898Z,83.21
2022-09-26T03:19:47.629Z,84.19
2022-09-26T03:22:17.078Z,84.31
2022-09-26T03:24:44.784Z,83.54
2022-09-26T03:27:14.760Z,81.38
2022-09-26T03:29:42.340Z,80.72
2022-09-26T03:32:10.293Z,82.84
2022-09-26T03:34:49.840Z,84.04
2022-09-26T03:37:17.582Z,82.91
2022-09-26T03:39:50.977Z,83.11
2022-09-26T03:42:20.677Z,82.29
2022-09-26T03:44:51.431Z,81.38
2022-09-26T03:47:19.248Z,82.04
2022-09-26T03:49:47.169Z,80.61
2022-09-26T03:52:14.837Z,81.13
2022-09-26T03:54:42.892Z,83.37
2022-09-26T03:57:12.851Z,81.14
2022-09-26T03:59:42.396Z,80.54
2022-09-26T04:02:10.075Z,79.37
2022-09-26T04:04:37.790Z,79.46
2022-09-26T04:07:05.399Z,80.93
2022-09-26T04:09:33.330Z,83.56
2022-09-26T04:12:01.231Z,82.94
2022-09-26T04:14:29.143Z,83.33
2022-09-26T04:17:17.479Z,83.08
2022-09-26T04:19:46.602Z,81.46
2022-09-26T04:22:14.165Z,81.33
2022-09-26T04:24:44.598Z,79.52
2022-09-26T04:27:13.080Z,81.14
2022-09-26T04:29:40.911Z,81.51
2022-09-26T04:32:08.757Z,82.02
2022-09-26T04:34:38.369Z,80.72
2022-09-26T04:37:09.026Z,82.00
2022-09-26T04:39:37.071Z,81.87
2022-09-26T04:42:04.789Z,83.46
2022-09-26T04:44:32.862Z,83.51
2022-09-26T04:47:00.771Z,81.74
2022-09-26T04:49:29.872Z,82.29
2022-09-26T04:51:57.757Z,82.72
2022-09-26T04:54:27.673Z,80.27
2022-09-26T04:56:55.298Z,81.37
2022-09-26T04:59:25.524Z,82.74
2022-09-26T05:01:58.768Z,83.06
2022-09-26T05:04:27.803Z,83.94
2022-09-26T05:06:59.195Z,83.47
2022-09-26T05:09:30.771Z,84.03
2022-09-26T05:12:02.240Z,83.23
2022-09-26T05:14:29.819Z,83.12
2022-09-26T05:16:57.465Z,82.60
2022-09-26T05:19:25.408Z,81.41
2022-09-26T05:21:52.979Z,82.51
2022-09-26T05:24:40.090Z,83.02
2022-09-26T05:27:09.647Z,83.94
2022-09-26T05:29:37.241Z,84.72
2022-09-26T05:32:07.620Z,83.04
2022-09-26T05:34:35.231Z,84.44
2022-09-26T05:37:03.008Z,84.10
2022-09-26T05:39:48.208Z,83.09
2022-09-26T05:42:17.606Z,83.76
2022-09-26T05:44:45.575Z,83.26
2022-09-26T05:47:14.046Z,82.34
2022-09-26T05:49:41.995Z,81.64
2022-09-26T05:52:10.092Z,82.48
2022-09-26T05:54:38.072Z,81.76
2022-09-26T05:57:05.788Z,81.91
2022-09-26T05:59:37.867Z,81.88
2022-09-26T06:02:08.657Z,81.99
2022-09-26T06:04:42.144Z,81.47
2022-09-26T06:07:10.577Z,83.12
2022-09-26T06:09:41.060Z,81.83
2022-09-26T06:12:12.522Z,80.11
2022-09-26T06:14:47.138Z,81.23
2022-09-26T06:17:15.291Z,80.94
2022-09-26T06:19:43.750Z,80.89
2022-09-26T06:22:13.161Z,81.30
2022-09-26T06:24:51.072Z,80.79
2022-09-26T06:27:20.382Z,80.94
2022-09-26T06:29:49.469Z,81.37
2022-09-26T06:32:20.942Z,81.77
2022-09-26T06:34:48.919Z,80.66
2022-09-26T06:37:16.767Z,80.55
2022-09-26T06:39:45.181Z,81.87
2022-09-26T06:42:12.959Z,82.08
2022-09-26T06:44:40.651Z,81.95
2022-09-26T06:47:12.703Z,79.42
2022-09-26T06:49:40.632Z,79.98
2022-09-26T06:52:08.480Z,80.94
2022-09-26T06:54:40.580Z,79.70
2022-09-26T06:57:12.807Z,80.22
2022-09-26T06:59:42.370Z,81.48
2022-09-26T07:02:12.439Z,80.15
2022-09-26T07:04:40.281Z,80.83
2022-09-26T07:07:08.070Z,80.78
2022-09-26T07:09:36.175Z,79.29
2022-09-26T07:12:20.749Z,81.47
2022-09-26T07:14:53.438Z,80.10
2022-09-26T07:17:27.455Z,80.14
2022-09-26T07:19:57.679Z,79.48
2022-09-26T07:22:25.226Z,79.83
2022-09-26T07:24:52.807Z,79.52
2022-09-26T07:27:23.445Z,79.89
2022-09-26T07:29:51.036Z,79.22
2022-09-26T07:32:22.221Z,78.95
2022-09-26T07:34:54.458Z,80.74
2022-09-26T07:37:22.527Z,80.72
2022-09-26T07:39:54.740Z,80.11
2022-09-26T07:42:27.173Z,79.16
2022-09-26T07:48:01.836Z,77.84
2022-09-26T07:50:31.285Z,78.87
2022-09-26T07:53:03.856Z,78.47
2022-09-26T07:55:31.561Z,78.86
2022-09-26T07:57:59.620Z,77.41
2022-09-26T08:00:31.633Z,78.73
2022-09-26T08:03:01.850Z,79.88
2022-09-26T08:05:32.424Z,79.81
2022-09-26T08:08:00.181Z,77.78
2022-09-26T08:10:28.212Z,77.27
2022-09-26T08:12:56.837Z,77.62
2022-09-26T08:15:24.774Z,77.96
2022-09-26T08:17:52.785Z,78.14
2022-09-26T08:20:21.063Z,77.84
2022-09-26T08:22:50.827Z,77.56
2022-09-26T08:25:18.886Z,78.37
2022-09-26T08:27:50.660Z,77.76
2022-09-26T08:30:18.223Z,76.90
2022-09-26T08:32:53.357Z,76.58
2022-09-26T08:35:23.897Z,76.54
2022-09-26T08:37:57.244Z,76.55
2022-09-26T08:40:27.694Z,75.37
2022-09-26T08:42:57.463Z,75.48
2022-09-26T08:45:47.558Z,75.86
2022-09-26T08:48:19.767Z,74.58
2022-09-26T08:50:50.267Z,74.21
2022-09-26T08:53:20.721Z,73.91
2022-09-26T08:55:50.301Z,73.73
2022-09-26T08:58:18.436Z,73.48
2022-09-26T09:00:47.870Z,73.59
2022-09-26T09:03:19.728Z,71.84
2022-09-26T09:05:50.345Z,72.02
2022-09-26T09:08:27.603Z,71.61
2022-09-26T09:10:56.929Z,72.48
2022-09-26T09:13:32.127Z,71.17
2022-09-26T09:16:13.212Z,71.36
2022-09-26T09:18:42.461Z,69.47
2022-09-26T09:21:12.107Z,70.01
2022-09-26T09:23:45.880Z,68.98
2022-09-26T09:29:12.633Z,67.33
2022-09-26T09:31:42.273Z,67.16
2022-09-26T09:34:11.289Z,67.17
2022-09-26T09:36:40.462Z,67.07
2022-09-26T09:39:10.743Z,67.11
2022-09-26T09:41:39.604Z,67.58
2022-09-26T09:44:11.027Z,67.66
2022-09-26T09:46:39.715Z,66.02
2022-09-26T09:49:13.636Z,65.19
2022-09-26T09:51:43.911Z,64.38
2022-09-26T09:54:27.787Z,65.11
2022-09-26T09:57:02.874Z,63.83
2022-09-26T09:59:40.188Z,63.98
2022-09-26T10:02:14.308Z,63.86
2022-09-26T10:04:44.059Z,63.88
2022-09-26T10:07:11.674Z,64.82
2022-09-26T10:09:42.952Z,64.35
2022-09-26T10:12:17.640Z,62.83
2022-09-26T10:14:47.787Z,63.17
2022-09-26T10:17:20.779Z,62.39
2022-09-26T10:19:51.969Z,63.46
2022-09-26T10:22:28.499Z,63.81
2022-09-26T10:25:00.669Z,63.52
2022-09-26T10:27:38.998Z,63.83
2022-09-26T10:30:25.864Z,63.60
2022-09-26T10:32:56.642Z,63.55
2022-09-26T10:35:25.529Z,63.86
2022-09-26T10:37:59.411Z,63.89
2022-09-26T10:40:48.410Z,64.25
2022-09-26T10:43:23.097Z,63.17
2022-09-26T10:45:53.895Z,62.29
2022-09-26T10:48:22.498Z,62.49
2022-09-26T10:50:51.484Z,61.79
2022-09-26T10:53:23.068Z,61.37
2022-09-26T10:55:52.438Z,62.33
2022-09-26T10:58:24.241Z,62.80
2022-09-26T11:00:52.442Z,62.26
2022-09-26T11:03:21.486Z,61.64
2022-09-26T11:05:59.097Z,62.65
2022-09-26T11:08:27.895Z,60.77
2022-09-26T11:11:01.010Z,60.68
2022-09-26T11:13:39.509Z,60.05
2022-09-26T11:16:11.073Z,59.97
2022-09-26T11:18:43.170Z,58.76
2022-09-26T11:21:28.375Z,57.55
2022-09-26T11:23:59.241Z,57.75
2022-09-26T11:26:28.218Z,58.49
2022-09-26T11:29:03.947Z,58.58
2022-09-26T11:31:32.399Z,59.29
2022-09-26T11:34:00.679Z,61.77
2022-09-26T11:36:34.497Z,65.41
2022-09-26T11:39:03.693Z,73.06
2022-09-26T11:41:42.119Z,74.05
2022-09-26T11:44:33.854Z,71.41
2022-09-26T11:47:07.139Z,71.50
2022-09-26T11:49:50.701Z,72.56
2022-09-26T11:52:22.097Z,73.27
2022-09-26T11:54:58.799Z,74.09
2022-09-26T11:57:33.056Z,73.58
2022-09-26T12:00:07.629Z,71.47
2022-09-26T12:02:46.204Z,69.11
2022-09-26T12:05:28.510Z,68.86
2022-09-26T12:08:02.135Z,67.75
2022-09-26T12:10:32.667Z,67.21
2022-09-26T12:13:07.079Z,66.42
2022-09-26T12:15:35.881Z,65.79
2022-09-26T12:18:07.733Z,62.94
2022-09-26T12:20:36.765Z,63.13
2022-09-26T12:23:14.326Z,61.92
2022-09-26T12:25:46.287Z,64.28
2022-09-26T12:28:17.681Z,64.79
2022-09-26T12:30:48.560Z,64.79
2022-09-26T12:33:25.027Z,64.83
2022-09-26T12:35:57.085Z,63.62
2022-09-26T12:38:46.068Z,63.00
2022-09-26T12:41:15.503Z,63.64
2022-09-26T12:43:50.556Z,62.31
2022-09-26T12:46:22.130Z,62.24
2022-09-26T12:48:57.240Z,62.74
2022-09-26T12:51:31.739Z,62.54
2022-09-26T12:54:16.997Z,63.15
2022-09-26T12:56:47.236Z,63.18
2022-09-26T12:59:17.625Z,63.66
2022-09-26T13:02:01.942Z,64.01
2022-09-26T13:04:44.478Z,64.20
2022-09-26T13:07:19.231Z,64.06
2022-09-26T13:09:55.467Z,64.78
2022-09-26T13:12:31.198Z,65.67
2022-09-26T13:15:02.131Z,66.48
2022-09-26T13:17:32.287Z,65.29
2022-09-26T13:20:02.261Z,64.87
2022-09-26T13:22:35.199Z,64.73
2022-09-26T13:25:08.152Z,64.41
2022-09-26T13:27:39.504Z,63.89
2022-09-26T13:30:09.055Z,63.09
2022-09-26T13:32:40.552Z,63.93
2022-09-26T13:35:09.708Z,64.70
2022-09-26T13:37:41.995Z,64.88
2022-09-26T13:40:14.630Z,65.10
2022-09-26T13:42:43.656Z,65.08
2022-09-26T13:45:18.398Z,65.67
2022-09-26T13:47:47.504Z,65.20
2022-09-26T13:50:23.164Z,64.28
2022-09-26T13:52:57.141Z,64.39
2022-09-26T13:55:25.526Z,63.43
2022-09-26T13:58:04.359Z,64.75
2022-09-26T14:00:58.058Z,65.54
2022-09-26T14:03:47.424Z,66.12
2022-09-26T14:06:32.768Z,66.32
2022-09-26T14:09:28.960Z,65.96
2022-09-26T14:12:20.107Z,65.81
2022-09-26T14:14:52.159Z,66.93
2022-09-26T14:17:38.473Z,66.63
2022-09-26T14:20:06.258Z,67.01
2022-09-26T14:22:39.435Z,67.24
2022-09-26T14:25:10.683Z,67.02
2022-09-26T14:27:47.938Z,67.73
2022-09-26T14:30:30.487Z,66.92
2022-09-26T14:33:02.326Z,67.33
2022-09-26T14:35:30.449Z,67.69
2022-09-26T14:38:00.772Z,66.84
2022-09-26T14:40:29.736Z,67.33
2022-09-26T14:43:02.799Z,67.32
2022-09-26T14:45:42.430Z,67.66
2022-09-26T14:48:10.423Z,67.88
2022-09-26T14:50:44.349Z,67.14
2022-09-26T14:53:12.567Z,68.42
2022-09-26T14:55:51.442Z,67.49
2022-09-26T14:58:29.653Z,68.35
2022-09-26T15:01:05.171Z,68.25
2022-09-26T15:03:33.323Z,68.94
2022-09-26T15:06:04.965Z,68.35
2022-09-26T15:08:35.115Z,68.43
2022-09-26T15:11:06.662Z,67.99
2022-09-26T15:13:35.748Z,67.58
2022-09-26T15:16:09.910Z,69.16
2022-09-26T15:18:38.779Z,68.86
2022-09-26T15:21:17.844Z,69.23
2022-09-26T15:23:46.638Z,69.31
2022-09-26T15:26:17.442Z,69.68
2022-09-26T15:28:45.768Z,69.17
2022-09-26T15:31:28.255Z,70.02
2022-09-26T15:33:57.138Z,70.17
2022-09-26T15:36:28.507Z,70.07
2022-09-26T15:38:56.208Z,69.89
2022-09-26T15:41:41.293Z,70.26
2022-09-26T15:44:09.143Z,69.82
2022-09-26T15:46:38.484Z,69.77
2022-09-26T15:49:14.340Z,70.23
2022-09-26T15:51:42.071Z,69.37
2022-09-26T15:54:11.489Z,70.49
2022-09-26T15:56:39.741Z,71.47
2022-09-26T15:59:11.721Z,70.92
2022-09-26T16:01:43.189Z,70.83
2022-09-26T16:04:15.461Z,71.10
2022-09-26T16:06:43.939Z,71.66
2022-09-26T16:09:17.505Z,70.03
2022-09-26T16:11:47.800Z,70.18
2022-09-26T16:14:26.622Z,70.64
2022-09-26T16:16:56.383Z,70.78
2022-09-26T16:19:34.210Z,70.52
2022-09-26T16:22:19.806Z,71.31
2022-09-26T16:24:49.778Z,70.91
2022-09-26T16:27:21.370Z,70.90
2022-09-26T16:29:51.027Z,71.75
2022-09-26T16:32:22.943Z,72.65
2022-09-26T16:34:51.141Z,72.43
2022-09-26T16:37:19.777Z,73.42
2022-09-26T16:39:55.182Z,72.87
2022-09-26T16:42:25.777Z,73.41
2022-09-26T16:44:54.859Z,73.40
2022-09-26T16:47:40.591Z,73.15
2022-09-26T16:50:22.623Z,72.22
2022-09-26T16:52:50.782Z,72.40
2022-09-26T16:55:18.549Z,72.75
2022-09-26T16:57:49.987Z,72.29
2022-09-26T17:00:36.089Z,73.36
2022-09-26T17:03:03.852Z,72.34
2022-09-26T17:05:33.297Z,74.04
2022-09-26T17:08:04.347Z,73.35
2022-09-26T17:10:37.436Z,74.25
2022-09-26T17:13:07.137Z,74.33
2022-09-26T17:15:35.571Z,73.68
2022-09-26T17:18:03.495Z,73.80
2022-09-26T17:20:33.794Z,73.93
2022-09-26T17:23:17.148Z,74.16
2022-09-26T17:25:55.373Z,74.35
2022-09-26T17:28:29.218Z,73.74
2022-09-26T17:30:58.005Z,74.91
2022-09-26T17:33:27.368Z,75.66
2022-09-26T17:38:43.860Z,75.40
2022-09-26T17:41:12.487Z,75.86
2022-09-26T17:43:40.585Z,75.24
2022-09-26T17:46:15.176Z,75.81
2022-09-26T17:48:43.767Z,76.05
2022-09-26T17:51:13.951Z,75.60
2022-09-26T17:53:50.776Z,74.55
2022-09-26T17:56:19.037Z,74.91
2022-09-26T17:58:47.239Z,73.61
2022-09-26T18:01:19.245Z,74.73
2022-09-26T18:03:47.436Z,75.42
2022-09-26T18:06:17.407Z,75.46
2022-09-26T18:08:46.481Z,75.33
2022-09-26T18:11:14.762Z,75.15
2022-09-26T18:13:47.449Z,75.10
2022-09-26T18:16:15.649Z,75.67
2022-09-26T18:18:45.403Z,75.13
2022-09-26T18:21:16.397Z,74.18
2022-09-26T18:23:45.381Z,74.24
2022-09-26T18:26:16.953Z,74.64
2022-09-26T18:28:47.429Z,73.75
2022-09-26T18:31:15.598Z,74.31
2022-09-26T18:33:43.341Z,73.73
2022-09-26T18:36:12.186Z,72.17
2022-09-26T18:38:39.824Z,73.31
2022-09-26T18:41:08.243Z,73.49
2022-09-26T18:43:42.423Z,73.11
2022-09-26T18:46:10.920Z,73.34
2022-09-26T18:48:38.624Z,73.00
2022-09-26T18:51:06.459Z,72.94
2022-09-26T18:53:37.680Z,73.36
2022-09-26T18:56:22.868Z,74.28
2022-09-26T18:58:52.503Z,73.31
2022-09-26T19:01:22.837Z,74.03
2022-09-26T19:03:50.936Z,73.66
2022-09-26T19:06:22.118Z,72.61
2022-09-26T19:08:54.834Z,71.30
2022-09-26T19:11:23.184Z,72.33
2022-09-26T19:13:53.178Z,73.50
2022-09-26T19:16:21.366Z,72.81
2022-09-26T19:18:49.189Z,73.84
2022-09-26T19:21:33.318Z,72.96
2022-09-26T19:24:01.186Z,73.92
2022-09-26T19:26:30.983Z,74.28
2022-09-26T19:29:00.473Z,73.81
2022-09-26T19:31:28.298Z,74.86
2022-09-26T19:33:56.102Z,73.97
2022-09-26T19:36:23.722Z,74.84
2022-09-26T19:38:53.036Z,74.32
2022-09-26T19:41:20.726Z,73.93
2022-09-26T19:43:48.677Z,73.01
2022-09-26T19:46:22.980Z,73.66
2022-09-26T19:48:53.450Z,74.32
2022-09-26T19:51:21.160Z,75.49
2022-09-26T19:53:49.252Z,75.57
2022-09-26T19:56:17.929Z,75.22
2022-09-26T19:58:46.358Z,74.88
2022-09-26T20:01:19.034Z,74.79
2022-09-26T20:03:48.498Z,74.56
2022-09-26T20:06:17.492Z,73.80
2022-09-26T20:08:45.509Z,74.34
2022-09-26T20:11:13.675Z,75.40
2022-09-26T20:13:58.652Z,74.61
2022-09-26T20:16:26.756Z,75.78
2022-09-26T20:19:10.343Z,75.37
2022-09-26T20:21:37.971Z,75.54
2022-09-26T20:24:05.759Z,76.16
2022-09-26T20:26:35.956Z,75.04
2022-09-26T20:29:03.700Z,75.48
2022-09-26T20:31:31.403Z,76.28
2022-09-26T20:34:07.145Z,75.76
2022-09-26T20:36:37.729Z,77.04
2022-09-26T20:39:06.031Z,75.73
2022-09-26T20:41:37.204Z,76.30
2022-09-26T20:44:06.674Z,76.97
2022-09-26T20:46:35.255Z,77.81
2022-09-26T20:49:06.458Z,77.36
2022-09-26T20:51:36.069Z,76.16
2022-09-26T20:54:04.336Z,76.89
2022-09-26T20:56:34.990Z,76.92
2022-09-26T20:59:03.312Z,77.52
2022-09-26T21:01:31.096Z,77.21
2022-09-26T21:03:59.143Z,78.38
2022-09-26T21:06:29.422Z,77.98
2022-09-26T21:08:57.508Z,77.83
2022-09-26T21:11:25.276Z,78.08
2022-09-26T21:13:52.918Z,77.36
2022-09-26T21:16:25.259Z,76.67
2022-09-26T21:18:53.258Z,77.31
2022-09-26T21:21:21.922Z,76.93
2022-09-26T21:23:52.703Z,76.90
2022-09-26T21:26:21.353Z,76.84
2022-09-26T21:28:50.596Z,76.65
2022-09-26T21:31:20.887Z,76.39
2022-09-26T21:33:49.502Z,75.34
2022-09-26T21:36:25.175Z,75.29
2022-09-26T21:38:54.943Z,76.67
2022-09-26T21:41:22.693Z,76.78
2022-09-26T21:43:57.355Z,77.11
2022-09-26T21:46:27.184Z,76.84
2022-09-26T21:48:55.534Z,78.17
2022-09-26T21:51:23.561Z,79.21
2022-09-26T21:53:52.664Z,78.73
2022-09-26T21:56:25.591Z,79.30
2022-09-26T21:58:53.911Z,80.29
2022-09-26T22:01:21.837Z,80.34
2022-09-26T22:03:49.667Z,80.34
2022-09-26T22:06:17.259Z,80.65
2022-09-26T22:08:44.860Z,81.75
2022-09-26T22:11:14.547Z,81.99
2022-09-26T22:13:43.818Z,81.81
2022-09-26T22:16:12.071Z,81.50
2022-09-26T22:18:40.471Z,81.98
2022-09-26T22:21:08.995Z,81.93
2022-09-26T22:23:36.720Z,82.17
2022-09-26T22:26:07.683Z,82.05
2022-09-26T22:28:38.014Z,81.86
2022-09-26T22:31:07.538Z,82.68
2022-09-26T22:33:35.452Z,83.04
2022-09-26T22:36:05.417Z,82.56
2022-09-26T22:38:36.499Z,83.18
2022-09-26T22:41:04.646Z,83.00
2022-09-26T22:43:32.866Z,83.88
2022-09-26T22:46:04.033Z,84.55
2022-09-26T22:48:33.957Z,83.70
2022-09-26T22:51:03.216Z,83.52
2022-09-26T22:53:31.748Z,84.10
2022-09-26T22:56:05.170Z,84.87
2022-09-26T22:58:37.458Z,85.12
2022-09-26T23:01:05.501Z,83.64
2022-09-26T23:03:38.578Z,85.00
2022-09-26T23:06:06.377Z,84.39
2022-09-26T23:08:34.176Z,84.06
2022-09-26T23:11:04.817Z,84.83
2022-09-26T23:13:35.567Z,84.97
2022-09-26T23:16:06.786Z,86.13
2022-09-26T23:18:34.811Z,86.12
2022-09-26T23:21:07.694Z,85.71
2022-09-26T23:23:37.962Z,86.10
2022-09-26T23:26:08.361Z,86.53
2022-09-26T23:28:36.073Z,86.42
2022-09-26T23:31:07.321Z,86.75
2022-09-26T23:33:35.154Z,86.47
2022-09-26T23:36:03.262Z,87.40
2022-09-26T23:38:32.269Z,86.50
2022-09-26T23:41:00.112Z,87.23
2022-09-26T23:43:28.241Z,87.97
2022-09-26T23:45:58.016Z,87.77
2022-09-26T23:48:25.983Z,87.76
2022-09-26T23:50:53.677Z,87.82
2022-09-26T23:53:22.227Z,87.83
2022-09-26T23:55:56.017Z,88.17
2022-09-26T23:58:24.155Z,87.40
